Fleet, Virginia
Current Conditions -  °F | °C
As of 2:59 AM on Saturday 25 Oct 2014 (Local Time) from KNGU Reporting Station
Clear Clear  
Wind Chill: 57°   Ceiling: Unl
Heat Index: 57°   Visibility: 10mi
Dew Point: 45°   Wind: 8mph
Humidity: 64%   Direction: 340°NNW
Pressure: 29.97"   Gusts: NA
Location:  36.9343°N, 76.284°W
Report Text: KNGU 250659Z 34007KT 10SM CLR 14/07 A2997 RMK AO2 SLP149 T01390072 $
Loading
Personal Weather Stations






























Interactive Weather Map
Tropical Storm Tracking
New forecast layout! Learn more

10-Day Weather Forecast

Advertisements
Track Severe Weather on mobile